createdAt,value
2018-07-14T00:00:50.261Z,71.70
2018-07-14T00:03:20.342Z,72.93
2018-07-14T00:05:50.709Z,70.00
2018-07-14T00:08:21.224Z,73.40
2018-07-14T00:10:51.768Z,72.50
2018-07-14T00:13:21.909Z,72.57
2018-07-14T00:15:52.121Z,78.77
2018-07-14T00:18:23.330Z,75.43
2018-07-14T00:20:53.468Z,72.57
2018-07-14T00:23:24.109Z,76.20
2018-07-14T00:25:59.292Z,73.27
2018-07-14T00:28:29.760Z,75.03
2018-07-14T00:30:59.830Z,73.13
2018-07-14T00:33:31.645Z,77.23
2018-07-14T00:36:03.034Z,72.67
2018-07-14T00:38:33.373Z,72.03
2018-07-14T00:41:03.508Z,75.20
2018-07-14T00:43:33.776Z,72.30
2018-07-14T00:46:04.674Z,71.60
2018-07-14T00:48:35.437Z,71.20
2018-07-14T00:51:06.675Z,72.47
2018-07-14T00:53:36.850Z,73.10
2018-07-14T00:56:07.200Z,71.90
2018-07-14T00:58:37.572Z,69.73
2018-07-14T01:01:12.377Z,72.23
2018-07-14T01:03:43.363Z,71.43
2018-07-14T01:06:14.339Z,72.20
2018-07-14T01:08:44.770Z,71.23
2018-07-14T01:11:15.732Z,69.83
2018-07-14T01:13:45.993Z,72.90
2018-07-14T01:16:16.181Z,73.93
2018-07-14T01:18:49.539Z,71.40
2018-07-14T01:21:21.710Z,72.93
2018-07-14T01:23:52.004Z,72.77
2018-07-14T01:26:23.209Z,71.50
2018-07-14T01:28:53.745Z,72.63
2018-07-14T01:31:24.516Z,70.67
2018-07-14T01:33:55.988Z,72.20
2018-07-14T01:36:26.804Z,71.37
2018-07-14T01:38:57.545Z,72.93
2018-07-14T01:41:29.224Z,70.53
2018-07-14T01:43:59.521Z,72.03
2018-07-14T01:46:30.693Z,70.33
2018-07-14T01:49:01.401Z,70.00
2018-07-14T01:51:31.991Z,68.40
2018-07-14T01:54:02.459Z,71.50
2018-07-14T01:56:34.009Z,68.97
2018-07-14T01:59:04.305Z,72.23
2018-07-14T02:01:34.804Z,71.43
2018-07-14T02:04:05.061Z,74.77
2018-07-14T02:06:35.801Z,68.63
2018-07-14T02:09:07.340Z,68.67
2018-07-14T02:11:38.858Z,70.13
2018-07-14T02:14:09.419Z,69.97
2018-07-14T02:16:40.136Z,69.20
2018-07-14T02:19:10.189Z,68.63
2018-07-14T02:21:40.588Z,68.13
2018-07-14T02:24:11.295Z,67.67
2018-07-14T02:26:41.484Z,65.97
2018-07-14T02:29:13.350Z,68.23
2018-07-14T02:31:43.327Z,65.13
2018-07-14T02:34:13.661Z,67.37
2018-07-14T02:36:43.912Z,68.20
2018-07-14T02:39:14.278Z,65.30
2018-07-14T02:41:44.768Z,67.33
2018-07-14T02:44:15.087Z,67.73
2018-07-14T02:46:45.547Z,64.70
2018-07-14T02:49:15.571Z,67.20
2018-07-14T02:51:45.890Z,66.03
2018-07-14T02:54:16.111Z,66.70
2018-07-14T02:56:47.224Z,67.00
2018-07-14T02:59:18.032Z,65.67
2018-07-14T03:01:49.402Z,65.07
2018-07-14T03:04:20.848Z,66.00
2018-07-14T03:06:50.842Z,63.33
2018-07-14T03:09:22.173Z,64.83
2018-07-14T03:11:52.813Z,65.30
2018-07-14T03:14:23.651Z,66.03
2018-07-14T03:16:54.547Z,63.67
2018-07-14T03:19:24.895Z,63.83
2018-07-14T03:21:54.978Z,64.87
2018-07-14T03:24:25.235Z,65.00
2018-07-14T03:26:55.473Z,65.13
2018-07-14T03:29:26.725Z,66.80
2018-07-14T03:31:57.031Z,65.63
2018-07-14T03:34:27.522Z,65.07
2018-07-14T03:36:57.824Z,64.53
2018-07-14T03:39:29.297Z,67.10
2018-07-14T03:42:01.164Z,65.00
2018-07-14T03:44:31.719Z,64.40
2018-07-14T03:47:02.370Z,66.20
2018-07-14T03:49:33.287Z,65.13
2018-07-14T03:52:03.476Z,64.33
2018-07-14T03:54:33.875Z,65.27
2018-07-14T03:57:04.734Z,63.53
2018-07-14T03:59:34.556Z,65.00
2018-07-14T04:02:05.046Z,63.60
2018-07-14T04:04:35.115Z,66.77
2018-07-14T04:07:05.744Z,65.43
2018-07-14T04:09:36.291Z,64.90
2018-07-14T04:12:07.776Z,63.20
2018-07-14T04:14:38.930Z,62.87
2018-07-14T04:17:09.853Z,63.33
2018-07-14T04:19:40.167Z,64.73
2018-07-14T04:22:10.425Z,63.43
2018-07-14T04:24:41.080Z,64.40
2018-07-14T04:27:11.081Z,63.87
2018-07-14T04:29:41.429Z,65.47
2018-07-14T04:32:14.467Z,66.43
2018-07-14T04:34:44.586Z,64.27
2018-07-14T04:37:15.928Z,67.60
2018-07-14T04:39:46.756Z,64.97
2018-07-14T04:42:17.380Z,65.13
2018-07-14T04:44:47.900Z,67.17
2018-07-14T04:47:18.458Z,68.57
2018-07-14T04:49:49.135Z,65.03
2018-07-14T04:52:20.080Z,69.83
2018-07-14T04:54:50.843Z,68.70
2018-07-14T04:57:21.649Z,69.63
2018-07-14T04:59:51.768Z,73.03
2018-07-14T05:02:23.173Z,69.87
2018-07-14T05:04:54.139Z,70.70
2018-07-14T05:07:24.308Z,71.83
2018-07-14T05:09:54.425Z,71.63
2018-07-14T05:12:25.624Z,72.37
2018-07-14T05:14:56.896Z,76.57
2018-07-14T05:17:28.117Z,76.23
2018-07-14T05:19:59.598Z,76.03
2018-07-14T05:22:30.424Z,75.43
2018-07-14T05:25:00.600Z,77.43
2018-07-14T05:27:32.061Z,76.90
2018-07-14T05:30:02.457Z,79.17
2018-07-14T05:32:32.748Z,82.50
2018-07-14T05:35:03.198Z,79.33
2018-07-14T05:37:34.417Z,82.73
2018-07-14T05:40:05.753Z,84.47
2018-07-14T05:42:42.889Z,81.10
2018-07-14T05:45:13.362Z,92.43
2018-07-14T05:47:43.764Z,93.67
2018-07-14T05:50:14.590Z,86.63
2018-07-14T05:52:44.976Z,82.13
2018-07-14T05:55:15.680Z,80.40
2018-07-14T05:57:46.550Z,84.40
2018-07-14T06:00:16.940Z,83.10
2018-07-14T06:02:48.239Z,78.23
2018-07-14T06:05:19.090Z,83.77
2018-07-14T06:07:49.164Z,85.53
2018-07-14T06:10:19.670Z,81.57
2018-07-14T06:12:50.231Z,85.00
2018-07-14T06:15:20.828Z,74.73
2018-07-14T06:17:52.717Z,82.63
2018-07-14T06:20:23.405Z,90.40
2018-07-14T06:22:53.643Z,87.30
2018-07-14T06:25:23.945Z,88.30
2018-07-14T06:27:54.292Z,87.10
2018-07-14T06:30:24.408Z,79.70
2018-07-14T06:32:55.193Z,74.33
2018-07-14T06:35:25.648Z,77.17
2018-07-14T06:37:55.903Z,74.83
2018-07-14T06:40:26.513Z,74.87
2018-07-14T06:42:56.647Z,76.73
2018-07-14T06:45:26.909Z,81.07
2018-07-14T06:47:57.324Z,93.53
2018-07-14T06:50:27.509Z,87.27
2018-07-14T06:52:58.038Z,89.73
2018-07-14T06:55:30.242Z,87.70
2018-07-14T06:58:00.556Z,84.43
2018-07-14T07:00:31.045Z,97.97
2018-07-14T07:03:01.286Z,88.90
2018-07-14T07:05:31.969Z,90.20
2018-07-14T07:08:02.664Z,94.10
2018-07-14T07:10:33.184Z,89.97
2018-07-14T07:13:03.609Z,90.03
2018-07-14T07:15:33.812Z,90.23
2018-07-14T07:18:04.933Z,87.97
2018-07-14T07:20:35.365Z,94.00
2018-07-14T07:23:06.205Z,90.73
2018-07-14T07:25:36.930Z,83.93
2018-07-14T07:28:07.291Z,84.37
2018-07-14T07:30:40.182Z,83.73
2018-07-14T07:33:10.324Z,86.27
2018-07-14T07:35:40.909Z,84.63
2018-07-14T07:38:11.512Z,82.83
2018-07-14T07:40:41.555Z,91.47
2018-07-14T07:43:12.124Z,93.43
2018-07-14T07:45:42.815Z,86.47
2018-07-14T07:48:19.200Z,85.77
2018-07-14T07:50:49.652Z,93.50
2018-07-14T07:53:19.759Z,88.97
2018-07-14T07:55:50.033Z,97.03
2018-07-14T07:58:20.201Z,88.30
2018-07-14T08:00:51.137Z,88.10
2018-07-14T08:03:21.270Z,83.37
2018-07-14T08:05:51.575Z,86.47
2018-07-14T08:08:22.065Z,88.70
2018-07-14T08:10:52.277Z,87.40
2018-07-14T08:13:22.762Z,86.90
2018-07-14T08:15:56.624Z,89.97
2018-07-14T08:18:27.097Z,85.07
2018-07-14T08:20:57.412Z,82.80
2018-07-14T08:23:27.589Z,90.80
2018-07-14T08:25:57.981Z,83.47
2018-07-14T08:28:29.085Z,89.30
2018-07-14T08:30:59.311Z,96.30
2018-07-14T08:33:29.995Z,92.20
2018-07-14T08:36:00.597Z,88.70
2018-07-14T08:38:32.616Z,90.90
2018-07-14T08:41:02.834Z,82.67
2018-07-14T08:43:33.063Z,92.57
2018-07-14T08:46:03.424Z,94.07
2018-07-14T08:48:34.334Z,89.30
2018-07-14T08:51:04.436Z,93.37
2018-07-14T08:53:34.796Z,91.23
2018-07-14T08:56:06.868Z,90.17
2018-07-14T08:58:37.764Z,87.37
2018-07-14T09:01:09.454Z,89.10
2018-07-14T09:03:40.408Z,91.70
2018-07-14T09:06:17.709Z,92.37
2018-07-14T09:08:48.724Z,88.87
2018-07-14T09:11:19.662Z,85.67
2018-07-14T09:13:50.173Z,84.33
2018-07-14T09:16:20.780Z,82.73
2018-07-14T09:18:51.968Z,81.53
2018-07-14T09:21:22.924Z,82.13
2018-07-14T09:23:53.007Z,81.93
2018-07-14T09:26:24.261Z,83.37
2018-07-14T09:28:54.629Z,84.57
2018-07-14T09:31:25.215Z,86.53
2018-07-14T09:33:55.284Z,80.93
2018-07-14T09:36:25.620Z,82.33
2018-07-14T09:38:58.877Z,83.57
2018-07-14T09:41:30.294Z,83.63
2018-07-14T09:44:01.204Z,88.43
2018-07-14T09:46:32.983Z,86.40
2018-07-14T09:49:04.440Z,85.03
2018-07-14T09:51:35.105Z,85.00
2018-07-14T09:54:05.318Z,87.90
2018-07-14T09:56:35.366Z,84.60
2018-07-14T09:59:05.690Z,79.70
2018-07-14T10:01:35.830Z,82.63
2018-07-14T10:04:06.057Z,78.57
2018-07-14T10:06:36.534Z,82.00
2018-07-14T10:09:07.511Z,83.27
2018-07-14T10:11:37.674Z,79.97
2018-07-14T10:14:07.893Z,76.20
2018-07-14T10:16:39.346Z,81.80
2018-07-14T10:19:09.724Z,77.40
2018-07-14T10:21:40.019Z,81.30
2018-07-14T10:24:10.690Z,83.23
2018-07-14T10:26:41.237Z,82.73
2018-07-14T10:29:11.327Z,90.17
2018-07-14T10:31:41.698Z,83.13
2018-07-14T10:34:11.971Z,81.53
2018-07-14T10:36:42.397Z,83.20
2018-07-14T10:39:12.810Z,86.57
2018-07-14T10:41:43.094Z,79.90
2018-07-14T10:44:13.771Z,79.10
2018-07-14T10:46:44.126Z,78.43
2018-07-14T10:49:14.310Z,81.63
2018-07-14T10:51:45.715Z,82.63
2018-07-14T10:54:16.360Z,84.90
2018-07-14T10:56:47.428Z,88.33
2018-07-14T10:59:19.056Z,125.20
2018-07-14T11:01:49.862Z,109.13
2018-07-14T11:04:20.277Z,111.77
2018-07-14T11:06:50.685Z,110.03
2018-07-14T11:09:21.690Z,93.52
2018-07-14T11:11:52.109Z,83.77
2018-07-14T11:14:24.772Z,88.58
2018-07-14T11:16:55.074Z,81.80
2018-07-14T11:19:27.669Z,83.47
2018-07-14T11:21:58.241Z,84.50
2018-07-14T11:24:28.807Z,85.17
2018-07-14T11:26:59.359Z,83.73
2018-07-14T11:29:30.133Z,83.07
2018-07-14T11:32:00.453Z,78.83
2018-07-14T11:34:37.697Z,88.53
2018-07-14T11:37:08.780Z,89.83
2018-07-14T11:39:39.160Z,85.33
2018-07-14T11:42:09.895Z,89.90
2018-07-14T11:44:42.510Z,84.90
2018-07-14T11:47:12.875Z,88.87
2018-07-14T11:49:44.249Z,84.73
2018-07-14T11:52:14.521Z,80.80
2018-07-14T11:54:44.641Z,84.77
2018-07-14T11:57:14.934Z,78.20
2018-07-14T11:59:46.872Z,79.63
2018-07-14T12:02:17.871Z,77.60
2018-07-14T12:04:48.107Z,79.00
2018-07-14T12:07:18.477Z,77.53
2018-07-14T12:09:49.997Z,77.40
2018-07-14T12:12:20.573Z,79.83
2018-07-14T12:14:50.912Z,80.43
2018-07-14T12:17:22.014Z,77.47
2018-07-14T12:19:52.380Z,75.03
2018-07-14T12:22:22.593Z,81.87
2018-07-14T12:24:52.935Z,87.97
2018-07-14T12:27:23.610Z,84.57
2018-07-14T12:29:55.039Z,78.67
2018-07-14T12:32:25.423Z,79.63
2018-07-14T12:34:55.762Z,78.37
2018-07-14T12:37:25.751Z,83.40
2018-07-14T12:39:56.076Z,80.07
2018-07-14T12:42:26.864Z,83.77
2018-07-14T12:44:57.102Z,79.00
2018-07-14T12:47:28.278Z,76.60
2018-07-14T12:49:59.557Z,100.73
2018-07-14T12:52:29.894Z,79.93
2018-07-14T12:55:01.343Z,79.53
2018-07-14T12:57:31.588Z,88.40
2018-07-14T13:00:02.116Z,97.60
2018-07-14T13:02:32.357Z,105.27
2018-07-14T13:05:03.510Z,80.87
2018-07-14T13:07:34.744Z,84.93
2018-07-14T13:10:06.339Z,92.27
2018-07-14T13:12:37.220Z,97.37
2018-07-14T13:15:08.083Z,81.87
2018-07-14T13:17:39.640Z,77.67
2018-07-14T13:20:10.492Z,81.53
2018-07-14T13:22:40.717Z,79.07
2018-07-14T13:25:10.767Z,78.30
2018-07-14T13:27:41.389Z,82.83
2018-07-14T13:30:11.903Z,77.53
2018-07-14T13:32:42.172Z,80.13
2018-07-14T13:35:12.686Z,88.03
2018-07-14T13:37:43.166Z,81.40
2018-07-14T13:40:14.215Z,82.77
2018-07-14T13:42:46.433Z,79.63
2018-07-14T13:45:17.417Z,85.07
2018-07-14T13:47:48.999Z,82.83
2018-07-14T13:50:19.302Z,82.53
2018-07-14T13:52:49.721Z,79.93
2018-07-14T13:55:20.029Z,79.47
2018-07-14T13:57:50.773Z,79.53
2018-07-14T14:00:22.268Z,86.90
2018-07-14T14:02:52.991Z,83.87
2018-07-14T14:05:23.451Z,79.73
2018-07-14T14:07:54.021Z,81.03
2018-07-14T14:10:24.464Z,82.93
2018-07-14T14:12:54.743Z,80.03
2018-07-14T14:15:25.009Z,84.67
2018-07-14T14:17:56.433Z,81.53
2018-07-14T14:20:27.694Z,85.00
2018-07-14T14:22:58.074Z,82.10
2018-07-14T14:25:29.001Z,82.20
2018-07-14T14:27:59.369Z,82.72
2018-07-14T14:30:29.817Z,86.60
2018-07-14T14:33:01.252Z,81.28
2018-07-14T14:35:31.725Z,83.78
2018-07-14T14:38:02.119Z,81.90
2018-07-14T14:40:32.622Z,83.10
2018-07-14T14:43:02.958Z,84.47
2018-07-14T14:45:33.609Z,85.57
2018-07-14T14:48:04.829Z,81.97
2018-07-14T14:50:38.846Z,82.33
2018-07-14T14:53:09.487Z,81.28
2018-07-14T14:55:39.835Z,84.47
2018-07-14T14:58:10.492Z,82.15
2018-07-14T15:00:41.794Z,147.35
2018-07-14T15:03:12.107Z,81.87
2018-07-14T15:05:42.866Z,84.13
2018-07-14T15:08:13.419Z,85.40
2018-07-14T15:10:44.186Z,82.83
2018-07-14T15:13:14.258Z,82.33
2018-07-14T15:15:44.890Z,82.17
2018-07-14T15:18:15.161Z,84.43
2018-07-14T15:20:45.303Z,82.87
2018-07-14T15:23:15.831Z,79.80
2018-07-14T15:25:46.933Z,79.40
2018-07-14T15:28:17.245Z,79.80
2018-07-14T15:30:47.785Z,81.23
2018-07-14T15:33:18.174Z,82.80
2018-07-14T15:35:48.654Z,81.93
2018-07-14T15:38:18.797Z,89.63
2018-07-14T15:40:49.176Z,87.27
2018-07-14T15:43:19.264Z,83.10
2018-07-14T15:45:49.290Z,82.03
2018-07-14T15:48:25.999Z,82.57
2018-07-14T15:50:56.367Z,82.10
2018-07-14T15:53:26.569Z,81.03
2018-07-14T15:55:56.789Z,84.30
2018-07-14T15:58:27.030Z,85.92
2018-07-14T16:00:57.226Z,80.87
2018-07-14T16:03:27.865Z,79.92
2018-07-14T16:05:57.886Z,86.50
2018-07-14T16:08:28.238Z,96.42
2018-07-14T16:10:58.687Z,89.17
2018-07-14T16:13:28.824Z,86.35
2018-07-14T16:16:02.900Z,84.15
2018-07-14T16:18:32.983Z,86.30
2018-07-14T16:21:03.279Z,86.28
2018-07-14T16:23:34.477Z,100.82
2018-07-14T16:26:04.640Z,94.83
2018-07-14T16:28:34.992Z,86.25
2018-07-14T16:31:05.173Z,87.78
2018-07-14T16:33:35.172Z,90.10
2018-07-14T16:36:05.567Z,84.13
2018-07-14T16:38:35.897Z,83.47
2018-07-14T16:41:06.600Z,83.33
2018-07-14T16:43:36.774Z,86.17
2018-07-14T16:46:07.382Z,86.53
2018-07-14T16:48:38.011Z,84.97
2018-07-14T16:51:09.162Z,87.47
2018-07-14T16:53:39.869Z,88.67
2018-07-14T16:56:10.143Z,82.23
2018-07-14T16:58:40.505Z,80.83
2018-07-14T17:01:10.814Z,88.23
2018-07-14T17:03:41.158Z,82.37
2018-07-14T17:06:11.332Z,83.55
2018-07-14T17:08:42.454Z,86.40
2018-07-14T17:11:16.436Z,90.03
2018-07-14T17:13:47.069Z,85.42
2018-07-14T17:16:18.560Z,82.40
2018-07-14T17:18:48.897Z,81.87
2018-07-14T17:21:19.125Z,84.75
2018-07-14T17:23:50.334Z,84.20
2018-07-14T17:26:20.433Z,84.70
2018-07-14T17:28:51.563Z,84.30
2018-07-14T17:31:21.827Z,85.15
2018-07-14T17:33:52.188Z,86.67
2018-07-14T17:36:23.068Z,84.70
2018-07-14T17:38:53.801Z,84.25
2018-07-14T17:41:24.886Z,84.17
2018-07-14T17:43:56.919Z,84.20
2018-07-14T17:46:27.178Z,87.95
2018-07-14T17:48:58.329Z,86.20
2018-07-14T17:51:28.653Z,84.77
2018-07-14T17:53:58.872Z,82.47
2018-07-14T17:56:29.423Z,82.80
2018-07-14T17:59:00.309Z,82.70
2018-07-14T18:01:30.870Z,86.40
2018-07-14T18:04:01.894Z,83.20
2018-07-14T18:06:32.653Z,85.90
2018-07-14T18:09:03.004Z,86.17
2018-07-14T18:11:33.450Z,82.43
2018-07-14T18:14:11.986Z,88.63
2018-07-14T18:16:45.623Z,81.27
2018-07-14T18:19:23.072Z,87.33
2018-07-14T18:21:54.247Z,85.50
2018-07-14T18:24:25.800Z,84.93
2018-07-14T18:26:58.414Z,82.93
2018-07-14T18:29:29.315Z,82.93
2018-07-14T18:32:00.589Z,86.70
2018-07-14T18:34:32.211Z,87.43
2018-07-14T18:37:04.003Z,83.77
2018-07-14T18:39:35.407Z,82.23
2018-07-14T18:42:07.569Z,82.90
2018-07-14T18:44:45.605Z,85.10
2018-07-14T18:47:16.637Z,82.30
2018-07-14T18:49:47.031Z,79.83
2018-07-14T18:52:17.293Z,82.80
2018-07-14T18:54:47.770Z,82.10
2018-07-14T18:57:17.846Z,83.60
2018-07-14T18:59:47.993Z,81.40
2018-07-14T19:02:18.813Z,78.67
2018-07-14T19:04:49.196Z,81.13
2018-07-14T19:07:19.365Z,86.23
2018-07-14T19:09:49.492Z,80.93
2018-07-14T19:12:20.118Z,82.07
2018-07-14T19:14:50.351Z,81.97
2018-07-14T19:17:20.562Z,78.63
2018-07-14T19:19:50.698Z,82.07
2018-07-14T19:22:22.047Z,81.90
2018-07-14T19:24:52.183Z,81.40
2018-07-14T19:27:22.527Z,80.67
2018-07-14T19:29:53.182Z,80.67
2018-07-14T19:32:26.429Z,81.97
2018-07-14T19:34:56.846Z,76.70
2018-07-14T19:37:27.448Z,77.37
2018-07-14T19:39:58.717Z,78.30
2018-07-14T19:42:29.619Z,77.07
2018-07-14T19:45:00.239Z,75.93
2018-07-14T19:47:30.425Z,77.47
2018-07-14T19:50:00.468Z,80.43
2018-07-14T19:52:30.657Z,78.57
2018-07-14T19:55:00.890Z,78.93
2018-07-14T19:57:31.379Z,74.67
2018-07-14T20:00:01.618Z,79.87
2018-07-14T20:02:32.095Z,72.73
2018-07-14T20:05:02.091Z,73.33
2018-07-14T20:07:32.655Z,74.47
2018-07-14T20:10:04.414Z,75.80
2018-07-14T20:12:34.898Z,73.57
2018-07-14T20:15:07.191Z,73.10
2018-07-14T20:17:37.955Z,72.60
2018-07-14T20:20:10.232Z,77.93
2018-07-14T20:22:40.838Z,75.37
2018-07-14T20:25:11.196Z,73.73
2018-07-14T20:27:42.071Z,72.93
2018-07-14T20:30:13.078Z,72.87
2018-07-14T20:32:43.852Z,74.87
2018-07-14T20:35:14.420Z,74.53
2018-07-14T20:37:45.169Z,73.27
2018-07-14T20:40:15.629Z,75.80
2018-07-14T20:42:45.941Z,72.60
2018-07-14T20:45:16.705Z,72.13
2018-07-14T20:47:46.952Z,74.87
2018-07-14T20:50:17.861Z,73.27
2018-07-14T20:52:48.062Z,74.07
2018-07-14T20:55:18.356Z,72.67
2018-07-14T20:57:48.727Z,71.90
2018-07-14T21:00:19.038Z,75.37
2018-07-14T21:02:49.321Z,72.93
2018-07-14T21:05:19.551Z,72.30
2018-07-14T21:07:50.439Z,70.97
2018-07-14T21:10:20.284Z,71.53
2018-07-14T21:12:50.881Z,70.23
2018-07-14T21:15:22.106Z,71.30
2018-07-14T21:17:52.433Z,71.10
2018-07-14T21:20:22.960Z,70.37
2018-07-14T21:22:54.284Z,70.90
2018-07-14T21:25:25.063Z,71.40
2018-07-14T21:27:55.315Z,73.77
2018-07-14T21:30:25.741Z,71.93
2018-07-14T21:32:55.933Z,71.67
2018-07-14T21:35:26.390Z,68.67
2018-07-14T21:37:56.638Z,68.97
2018-07-14T21:40:26.831Z,71.63
2018-07-14T21:42:57.262Z,72.37
2018-07-14T21:45:27.965Z,70.13
2018-07-14T21:47:58.221Z,70.07
2018-07-14T21:50:28.279Z,71.37
2018-07-14T21:52:58.583Z,71.63
2018-07-14T21:55:28.860Z,73.13
2018-07-14T21:57:59.312Z,69.93
2018-07-14T22:00:35.680Z,72.90
2018-07-14T22:03:07.356Z,69.80
2018-07-14T22:05:37.713Z,70.87
2018-07-14T22:08:08.746Z,69.60
2018-07-14T22:10:39.131Z,70.17
2018-07-14T22:13:10.400Z,66.77
2018-07-14T22:15:41.632Z,70.67
2018-07-14T22:18:13.898Z,68.23
2018-07-14T22:20:44.871Z,68.50
2018-07-14T22:23:15.449Z,70.40
2018-07-14T22:25:46.852Z,71.13
2018-07-14T22:28:17.921Z,68.90
2018-07-14T22:30:49.720Z,70.63
2018-07-14T22:33:21.099Z,68.27
2018-07-14T22:35:51.625Z,69.33
2018-07-14T22:38:28.366Z,70.27
2018-07-14T22:40:58.970Z,69.53
2018-07-14T22:43:29.491Z,69.17
2018-07-14T22:45:59.749Z,72.37
2018-07-14T22:48:31.391Z,70.43
2018-07-14T22:51:01.912Z,69.47
2018-07-14T22:53:32.905Z,67.93
2018-07-14T22:56:03.943Z,68.60
2018-07-14T22:58:34.671Z,70.47
2018-07-14T23:01:04.816Z,95.27
2018-07-14T23:03:37.813Z,68.33
2018-07-14T23:06:07.610Z,68.53
2018-07-14T23:08:38.045Z,67.93
2018-07-14T23:11:08.684Z,72.57
2018-07-14T23:13:39.878Z,69.00
2018-07-14T23:16:10.602Z,72.33
2018-07-14T23:18:41.836Z,67.30
2018-07-14T23:21:12.163Z,69.50
2018-07-14T23:23:43.222Z,68.23
2018-07-14T23:26:13.278Z,70.20
2018-07-14T23:28:43.841Z,70.27
2018-07-14T23:31:14.114Z,67.90
2018-07-14T23:33:44.673Z,69.83
2018-07-14T23:36:15.231Z,65.67
2018-07-14T23:38:45.742Z,66.70
2018-07-14T23:41:16.860Z,67.33
2018-07-14T23:43:49.409Z,67.57
2018-07-14T23:46:19.899Z,66.20
2018-07-14T23:48:51.264Z,65.07
2018-07-14T23:51:21.971Z,67.50
2018-07-14T23:53:52.317Z,67.27
2018-07-14T23:56:23.458Z,68.73
2018-07-14T23:58:53.736Z,68.63
